createdAt,value
2018-11-10T00:00:23.249Z,6.40
2018-11-10T00:02:50.307Z,6.40
2018-11-10T00:05:17.687Z,6.30
2018-11-10T00:07:44.388Z,6.20
2018-11-10T00:10:10.979Z,6.20
2018-11-10T00:12:37.598Z,6.10
2018-11-10T00:15:05.355Z,6.10
2018-11-10T00:17:31.988Z,6.00
2018-11-10T00:19:58.594Z,5.90
2018-11-10T00:22:25.219Z,5.90
2018-11-10T00:24:51.810Z,5.80
2018-11-10T00:27:18.437Z,5.80
2018-11-10T00:29:45.031Z,5.80
2018-11-10T00:32:11.707Z,5.80
2018-11-10T00:34:38.319Z,5.80
2018-11-10T00:37:04.942Z,5.80
2018-11-10T00:39:31.548Z,5.80
2018-11-10T00:41:58.162Z,5.80
2018-11-10T00:44:24.754Z,5.80
2018-11-10T00:46:51.380Z,5.80
2018-11-10T00:49:17.967Z,5.90
2018-11-10T00:51:44.587Z,5.90
2018-11-10T00:54:11.194Z,5.90
2018-11-10T00:56:37.812Z,6.00
2018-11-10T00:59:04.408Z,6.00
2018-11-10T01:01:31.035Z,6.00
2018-11-10T01:03:57.631Z,6.10
2018-11-10T01:06:24.246Z,6.10
2018-11-10T01:08:50.846Z,6.10
2018-11-10T01:11:17.467Z,6.10
2018-11-10T01:13:44.070Z,6.00
2018-11-10T01:16:10.663Z,6.00
2018-11-10T01:18:37.588Z,6.00
2018-11-10T01:21:04.196Z,6.00
2018-11-10T01:23:30.810Z,6.00
2018-11-10T01:25:57.401Z,6.00
2018-11-10T01:28:24.018Z,6.00
2018-11-10T01:30:50.649Z,6.10
2018-11-10T01:33:17.273Z,6.10
2018-11-10T01:35:43.875Z,6.10
2018-11-10T01:38:10.498Z,6.00
2018-11-10T01:40:37.107Z,6.00
2018-11-10T01:43:03.722Z,6.10
2018-11-10T01:45:30.324Z,6.00
2018-11-10T01:47:56.954Z,6.00
2018-11-10T01:50:23.550Z,6.00
2018-11-10T01:52:50.171Z,5.90
2018-11-10T01:55:16.771Z,5.90
2018-11-10T01:57:43.403Z,5.90
2018-11-10T02:00:12.579Z,5.90
2018-11-10T02:02:39.347Z,5.90
2018-11-10T02:05:06.411Z,6.00
2018-11-10T02:07:33.070Z,6.00
2018-11-10T02:09:59.672Z,6.00
2018-11-10T02:12:26.301Z,6.10
2018-11-10T02:14:52.904Z,6.10
2018-11-10T02:17:19.521Z,6.10
2018-11-10T02:19:46.118Z,6.00
2018-11-10T02:22:12.751Z,6.00
2018-11-10T02:24:39.358Z,5.90
2018-11-10T02:27:10.614Z,5.90
2018-11-10T02:29:37.214Z,5.80
2018-11-10T02:32:03.828Z,5.80
2018-11-10T02:34:30.456Z,5.90
2018-11-10T02:36:57.058Z,6.00
2018-11-10T02:39:23.719Z,6.00
2018-11-10T02:41:50.324Z,6.10
2018-11-10T02:44:16.955Z,6.10
2018-11-10T02:46:43.551Z,6.00
2018-11-10T02:49:10.179Z,6.00
2018-11-10T02:51:36.787Z,6.00
2018-11-10T02:54:03.435Z,6.00
2018-11-10T02:56:30.030Z,6.00
2018-11-10T02:58:56.670Z,5.90
2018-11-10T03:01:23.283Z,5.90
2018-11-10T03:03:49.911Z,5.90
2018-11-10T03:06:16.515Z,5.90
2018-11-10T03:08:43.142Z,5.80
2018-11-10T03:11:09.740Z,5.80
2018-11-10T03:13:36.364Z,5.80
2018-11-10T03:16:02.958Z,5.80
2018-11-10T03:18:29.579Z,5.80
2018-11-10T03:20:56.183Z,5.80
2018-11-10T03:23:22.823Z,5.80
2018-11-10T03:25:49.423Z,5.80
2018-11-10T03:28:16.052Z,5.80
2018-11-10T03:30:42.646Z,5.90
2018-11-10T03:33:09.299Z,5.90
2018-11-10T03:35:35.899Z,6.00
2018-11-10T03:38:02.510Z,6.00
2018-11-10T03:40:29.131Z,6.00
2018-11-10T03:42:55.750Z,6.10
2018-11-10T03:45:22.347Z,6.10
2018-11-10T03:47:48.937Z,6.10
2018-11-10T03:50:15.550Z,6.20
2018-11-10T03:52:42.402Z,6.30
2018-11-10T03:55:09.279Z,6.30
2018-11-10T03:57:35.884Z,6.30
2018-11-10T04:00:02.511Z,6.20
2018-11-10T04:02:29.183Z,6.30
2018-11-10T04:04:55.803Z,6.30
2018-11-10T04:07:22.403Z,6.40
2018-11-10T04:09:49.022Z,6.40
2018-11-10T04:12:15.630Z,6.50
2018-11-10T04:14:42.251Z,6.40
2018-11-10T04:17:08.841Z,6.40
2018-11-10T04:19:35.474Z,6.40
2018-11-10T04:22:02.083Z,6.30
2018-11-10T04:24:28.698Z,6.30
2018-11-10T04:26:55.326Z,6.20
2018-11-10T04:29:21.990Z,6.30
2018-11-10T04:31:48.593Z,6.20
2018-11-10T04:34:15.214Z,6.10
2018-11-10T04:36:41.800Z,6.00
2018-11-10T04:39:08.418Z,5.90
2018-11-10T04:41:35.049Z,5.90
2018-11-10T04:44:01.672Z,5.90
2018-11-10T04:46:28.263Z,5.90
2018-11-10T04:48:54.892Z,5.90
2018-11-10T04:51:21.497Z,5.90
2018-11-10T04:53:48.122Z,6.00
2018-11-10T04:56:14.721Z,6.00
2018-11-10T04:58:41.339Z,5.90
2018-11-10T05:01:07.934Z,5.90
2018-11-10T05:03:34.530Z,5.90
2018-11-10T05:06:01.238Z,5.90
2018-11-10T05:08:27.851Z,5.90
2018-11-10T05:10:54.459Z,6.00
2018-11-10T05:13:21.059Z,5.90
2018-11-10T05:15:47.674Z,6.00
2018-11-10T05:18:14.263Z,6.00
2018-11-10T05:20:40.878Z,6.00
2018-11-10T05:23:07.472Z,6.00
2018-11-10T05:25:34.085Z,6.10
2018-11-10T05:28:00.706Z,6.10
2018-11-10T05:30:27.329Z,6.10
2018-11-10T05:32:53.964Z,6.10
2018-11-10T05:35:20.558Z,6.10
2018-11-10T05:37:47.342Z,6.10
2018-11-10T05:40:13.972Z,6.00
2018-11-10T05:42:40.866Z,5.90
2018-11-10T05:45:07.763Z,5.80
2018-11-10T05:47:34.418Z,5.70
2018-11-10T05:50:01.063Z,5.70
2018-11-10T05:52:27.657Z,5.70
2018-11-10T05:54:54.283Z,5.50
2018-11-10T05:57:21.010Z,5.50
2018-11-10T05:59:47.511Z,5.50
2018-11-10T06:02:14.134Z,5.50
2018-11-10T06:04:40.768Z,5.60
2018-11-10T06:07:07.383Z,5.60
2018-11-10T06:09:34.087Z,5.60
2018-11-10T06:12:00.665Z,5.60
2018-11-10T06:14:27.304Z,5.60
2018-11-10T06:16:53.911Z,5.60
2018-11-10T06:19:20.550Z,5.60
2018-11-10T06:21:47.159Z,5.60
2018-11-10T06:24:13.804Z,5.50
2018-11-10T06:26:40.447Z,5.50
2018-11-10T06:29:07.107Z,5.40
2018-11-10T06:31:33.854Z,5.40
2018-11-10T06:34:00.483Z,5.50
2018-11-10T06:36:27.077Z,5.60
2018-11-10T06:38:53.746Z,5.60
2018-11-10T06:41:20.424Z,5.70
2018-11-10T06:43:47.022Z,5.90
2018-11-10T06:46:13.634Z,6.00
2018-11-10T06:48:40.499Z,6.20
2018-11-10T06:51:07.110Z,6.50
2018-11-10T06:53:33.742Z,6.60
2018-11-10T06:56:00.342Z,6.70
2018-11-10T06:58:26.983Z,7.00
2018-11-10T07:00:53.622Z,7.40
2018-11-10T07:03:20.256Z,7.70
2018-11-10T07:05:46.844Z,8.00
2018-11-10T07:08:13.471Z,8.10
2018-11-10T07:10:40.070Z,8.40
2018-11-10T07:13:10.358Z,9.00
2018-11-10T07:15:37.254Z,9.60
2018-11-10T07:18:04.241Z,10.20
2018-11-10T07:20:30.823Z,10.40
2018-11-10T07:22:57.418Z,10.70
2018-11-10T07:25:24.035Z,10.80
2018-11-10T07:27:50.658Z,10.80
2018-11-10T07:30:17.297Z,10.70
2018-11-10T07:32:43.895Z,10.50
2018-11-10T07:35:11.747Z,10.30
2018-11-10T07:37:38.395Z,10.10
2018-11-10T07:40:05.855Z,10.30
2018-11-10T07:42:32.447Z,10.90
2018-11-10T07:44:59.066Z,11.30
2018-11-10T07:47:25.654Z,11.30
2018-11-10T07:49:53.063Z,11.30
2018-11-10T07:52:19.667Z,11.50
2018-11-10T07:54:46.278Z,12.30
2018-11-10T07:57:12.886Z,12.90
2018-11-10T07:59:39.507Z,13.00
2018-11-10T08:02:06.105Z,13.20
2018-11-10T08:04:32.730Z,13.70
2018-11-10T08:06:59.350Z,14.20
2018-11-10T08:09:25.991Z,14.50
2018-11-10T08:11:52.680Z,15.00
2018-11-10T08:14:19.245Z,15.80
2018-11-10T08:16:45.839Z,16.40
2018-11-10T08:19:12.470Z,17.00
2018-11-10T08:21:39.074Z,17.30
2018-11-10T08:24:05.858Z,18.20
2018-11-10T08:26:32.498Z,18.70
2018-11-10T08:28:59.129Z,18.30
2018-11-10T08:31:25.814Z,17.30
2018-11-10T08:33:52.378Z,16.70
2018-11-10T08:36:18.974Z,15.90
2018-11-10T08:38:45.582Z,15.40
2018-11-10T08:41:12.207Z,15.20
2018-11-10T08:43:38.819Z,15.20
2018-11-10T08:46:05.509Z,15.10
2018-11-10T08:48:32.120Z,15.60
2018-11-10T08:50:58.738Z,16.40
2018-11-10T08:53:25.344Z,16.60
2018-11-10T08:55:52.139Z,16.70
2018-11-10T08:58:18.751Z,16.50
2018-11-10T09:00:45.395Z,16.30
2018-11-10T09:03:12.008Z,16.30
2018-11-10T09:05:38.628Z,15.80
2018-11-10T09:08:05.223Z,15.20
2018-11-10T09:10:31.839Z,15.00
2018-11-10T09:12:58.435Z,15.10
2018-11-10T09:15:25.052Z,14.10
2018-11-10T09:17:51.717Z,13.40
2018-11-10T09:20:18.290Z,12.30
2018-11-10T09:22:44.893Z,11.30
2018-11-10T09:25:12.674Z,10.60
2018-11-10T09:27:39.395Z,10.10
2018-11-10T09:30:06.482Z,9.80
2018-11-10T09:32:33.084Z,9.60
2018-11-10T09:34:59.714Z,9.40
2018-11-10T09:37:26.319Z,9.30
2018-11-10T09:39:52.952Z,9.20
2018-11-10T09:42:19.721Z,9.20
2018-11-10T09:44:46.446Z,9.30
2018-11-10T09:47:13.047Z,9.40
2018-11-10T09:49:39.666Z,9.30
2018-11-10T09:52:06.294Z,9.20
2018-11-10T09:54:32.903Z,9.10
2018-11-10T09:56:59.569Z,8.90
2018-11-10T09:59:26.194Z,8.70
2018-11-10T10:04:26.182Z,8.60
2018-11-10T10:06:52.823Z,8.60
2018-11-10T10:09:19.423Z,8.60
2018-11-10T10:11:46.050Z,8.60
2018-11-10T10:14:12.664Z,8.60
2018-11-10T10:16:39.356Z,8.70
2018-11-10T10:19:06.391Z,8.90
2018-11-10T10:21:33.081Z,9.20
2018-11-10T10:23:59.651Z,9.30
2018-11-10T10:26:26.319Z,9.30
2018-11-10T10:28:52.984Z,9.40
2018-11-10T10:31:19.567Z,9.50
2018-11-10T10:33:46.162Z,9.60
2018-11-10T10:36:12.809Z,9.70
2018-11-10T10:38:39.414Z,9.80
2018-11-10T10:41:06.067Z,10.00
2018-11-10T10:43:32.685Z,10.30
2018-11-10T10:45:59.314Z,10.40
2018-11-10T10:48:25.945Z,10.50
2018-11-10T10:50:52.614Z,10.90
2018-11-10T10:53:19.210Z,11.20
2018-11-10T10:55:45.866Z,11.70
2018-11-10T10:58:12.469Z,12.10
2018-11-10T11:00:44.910Z,12.40
2018-11-10T11:03:17.541Z,12.50
2018-11-10T11:05:49.914Z,12.60
2018-11-10T11:08:16.555Z,12.60
2018-11-10T11:10:43.159Z,12.60
2018-11-10T11:13:09.783Z,12.50
2018-11-10T11:15:36.500Z,12.40
2018-11-10T11:18:03.027Z,12.30
2018-11-10T11:20:29.640Z,12.30
2018-11-10T11:22:56.264Z,12.40
2018-11-10T11:25:22.858Z,12.40
2018-11-10T11:27:49.510Z,12.10
2018-11-10T11:30:16.114Z,12.10
2018-11-10T11:32:42.746Z,12.10
2018-11-10T11:35:10.520Z,12.30
2018-11-10T11:37:37.559Z,12.40
2018-11-10T11:40:05.308Z,12.60
2018-11-10T11:42:31.945Z,12.70
2018-11-10T11:44:58.549Z,13.10
2018-11-10T11:47:25.194Z,13.70
2018-11-10T11:49:51.887Z,14.40
2018-11-10T11:52:18.450Z,15.00
2018-11-10T11:54:45.051Z,14.90
2018-11-10T11:57:11.678Z,14.40
2018-11-10T11:59:38.270Z,13.80
2018-11-10T12:02:04.925Z,13.50
2018-11-10T12:04:31.569Z,13.20
2018-11-10T12:06:58.146Z,13.10
2018-11-10T12:09:24.747Z,13.40
2018-11-10T12:11:51.382Z,14.00
2018-11-10T12:14:18.018Z,14.80
2018-11-10T12:16:44.704Z,15.70
2018-11-10T12:19:11.270Z,16.00
2018-11-10T12:21:37.872Z,15.70
2018-11-10T12:24:04.511Z,15.60
2018-11-10T12:26:31.140Z,15.40
2018-11-10T12:28:57.749Z,15.50
2018-11-10T12:31:24.354Z,15.90
2018-11-10T12:33:51.012Z,15.80
2018-11-10T12:36:17.622Z,15.80
2018-11-10T12:38:44.281Z,16.70
2018-11-10T12:41:10.881Z,17.80
2018-11-10T12:43:37.511Z,18.40
2018-11-10T12:46:04.139Z,18.90
2018-11-10T12:48:30.760Z,19.10
2018-11-10T12:50:57.350Z,19.20
2018-11-10T12:53:23.986Z,19.50
2018-11-10T12:55:50.616Z,19.70
2018-11-10T12:58:17.235Z,20.00
2018-11-10T13:00:43.823Z,20.60
2018-11-10T13:03:10.451Z,21.10
2018-11-10T13:05:37.046Z,21.00
2018-11-10T13:08:03.730Z,20.30
2018-11-10T13:10:30.320Z,20.00
2018-11-10T13:12:56.951Z,20.00
2018-11-10T13:15:23.543Z,20.00
2018-11-10T13:17:50.221Z,19.40
2018-11-10T13:20:16.803Z,19.00
2018-11-10T13:22:43.435Z,18.50
2018-11-10T13:25:10.989Z,18.30
2018-11-10T13:27:37.734Z,18.00
2018-11-10T13:30:04.896Z,17.30
2018-11-10T13:32:31.495Z,16.80
2018-11-10T13:34:58.125Z,16.70
2018-11-10T13:37:24.714Z,17.40
2018-11-10T13:39:51.338Z,18.00
2018-11-10T13:42:17.954Z,18.80
2018-11-10T13:44:44.570Z,18.90
2018-11-10T13:47:11.174Z,18.50
2018-11-10T13:49:37.795Z,18.10
2018-11-10T13:52:04.678Z,17.40
2018-11-10T13:54:31.034Z,17.00
2018-11-10T13:56:57.647Z,16.60
2018-11-10T13:59:24.274Z,16.10
2018-11-10T14:01:50.851Z,15.90
2018-11-10T14:04:17.470Z,15.70
2018-11-10T14:06:44.075Z,15.50
2018-11-10T14:09:11.537Z,15.20
2018-11-10T14:11:38.133Z,15.20
2018-11-10T14:14:04.754Z,15.10
2018-11-10T14:16:31.352Z,15.00
2018-11-10T14:18:57.978Z,14.90
2018-11-10T14:21:24.575Z,14.80
2018-11-10T14:23:51.191Z,14.60
2018-11-10T14:26:24.853Z,14.30
2018-11-10T14:28:51.435Z,14.00
2018-11-10T14:31:18.030Z,13.90
2018-11-10T14:33:44.658Z,13.70
2018-11-10T14:36:11.251Z,13.60
2018-11-10T14:38:37.878Z,13.50
2018-11-10T14:41:04.471Z,13.50
2018-11-10T14:43:31.135Z,13.50
2018-11-10T14:45:57.727Z,13.30
2018-11-10T14:48:24.359Z,13.20
2018-11-10T14:50:50.987Z,13.10
2018-11-10T14:53:17.744Z,13.00
2018-11-10T14:55:44.270Z,13.00
2018-11-10T14:58:10.891Z,12.90
2018-11-10T15:00:37.482Z,12.90
2018-11-10T15:03:04.113Z,12.80
2018-11-10T15:05:30.759Z,12.70
2018-11-10T15:07:57.361Z,12.50
2018-11-10T15:10:23.950Z,12.40
2018-11-10T15:12:50.587Z,12.20
2018-11-10T15:15:18.062Z,12.10
2018-11-10T15:17:45.159Z,12.10
2018-11-10T15:20:13.187Z,12.10
2018-11-10T15:22:39.783Z,12.00
2018-11-10T15:25:07.473Z,11.90
2018-11-10T15:27:34.038Z,11.80
2018-11-10T15:30:00.662Z,11.80
2018-11-10T15:32:27.264Z,11.80
2018-11-10T15:34:54.106Z,11.80
2018-11-10T15:37:20.755Z,11.70
2018-11-10T15:39:47.354Z,11.70
2018-11-10T15:42:13.949Z,11.70
2018-11-10T15:44:40.591Z,11.60
2018-11-10T15:47:07.184Z,11.50
2018-11-10T15:49:33.818Z,11.50
2018-11-10T15:52:00.454Z,11.50
2018-11-10T15:54:27.093Z,11.50
2018-11-10T15:56:53.728Z,11.40
2018-11-10T15:59:20.347Z,11.40
2018-11-10T16:01:46.978Z,11.40
2018-11-10T16:04:13.604Z,11.40
2018-11-10T16:06:40.203Z,11.40
2018-11-10T16:09:07.516Z,11.40
2018-11-10T16:11:34.078Z,11.40
2018-11-10T16:14:00.719Z,11.30
2018-11-10T16:16:27.315Z,11.30
2018-11-10T16:18:53.942Z,11.30
2018-11-10T16:21:20.530Z,11.30
2018-11-10T16:23:47.174Z,11.30
2018-11-10T16:26:13.770Z,11.30
2018-11-10T16:28:40.439Z,11.30
2018-11-10T16:31:06.998Z,11.30
2018-11-10T16:33:33.627Z,11.30
2018-11-10T16:36:00.227Z,11.30
2018-11-10T16:38:26.831Z,11.30
2018-11-10T16:40:53.470Z,11.30
2018-11-10T16:43:20.062Z,11.30
2018-11-10T16:45:46.686Z,11.30
2018-11-10T16:48:13.275Z,11.30
2018-11-10T16:50:39.922Z,11.40
2018-11-10T16:53:06.542Z,11.30
2018-11-10T16:55:33.158Z,11.30
2018-11-10T16:57:59.755Z,11.30
2018-11-10T17:00:26.370Z,11.30
2018-11-10T17:02:52.963Z,11.40
2018-11-10T17:05:19.597Z,11.40
2018-11-10T17:07:46.194Z,11.50
2018-11-10T17:10:14.087Z,11.40
2018-11-10T17:12:41.017Z,11.40
2018-11-10T17:15:07.947Z,11.50
2018-11-10T17:17:34.547Z,11.50
2018-11-10T17:20:01.179Z,11.50
2018-11-10T17:22:27.877Z,11.40
2018-11-10T17:24:54.465Z,11.40
2018-11-10T17:27:21.050Z,11.40
2018-11-10T17:29:47.679Z,11.50
2018-11-10T17:32:14.319Z,11.50
2018-11-10T17:34:40.950Z,11.50
2018-11-10T17:37:07.547Z,11.50
2018-11-10T17:39:34.268Z,11.50
2018-11-10T17:42:00.836Z,11.50
2018-11-10T17:44:27.443Z,11.50
2018-11-10T17:46:54.038Z,11.50
2018-11-10T17:49:20.666Z,11.50
2018-11-10T17:51:47.290Z,11.50
2018-11-10T17:54:14.012Z,11.50
2018-11-10T17:56:40.661Z,11.50
2018-11-10T17:59:07.526Z,11.50
2018-11-10T18:01:34.230Z,11.50
2018-11-10T18:04:00.942Z,11.50
2018-11-10T18:06:27.447Z,11.50
2018-11-10T18:08:54.076Z,11.40
2018-11-10T18:11:20.675Z,11.40
2018-11-10T18:13:47.298Z,11.40
2018-11-10T18:16:13.894Z,11.40
2018-11-10T18:18:40.532Z,11.40
2018-11-10T18:21:07.150Z,11.30
2018-11-10T18:23:33.797Z,11.30
2018-11-10T18:26:00.390Z,11.30
2018-11-10T18:28:27.014Z,11.20
2018-11-10T18:30:53.608Z,11.20
2018-11-10T18:33:20.254Z,11.10
2018-11-10T18:35:46.858Z,11.00
2018-11-10T18:38:13.487Z,11.00
2018-11-10T18:40:40.083Z,11.00
2018-11-10T18:43:06.711Z,11.00
2018-11-10T18:45:33.310Z,10.90
2018-11-10T18:47:59.934Z,10.90
2018-11-10T18:50:26.526Z,10.80
2018-11-10T18:52:53.122Z,10.80
2018-11-10T18:55:19.737Z,10.80
2018-11-10T18:57:46.569Z,10.80
2018-11-10T19:00:15.179Z,10.90
2018-11-10T19:02:41.783Z,10.80
2018-11-10T19:05:09.799Z,10.80
2018-11-10T19:07:36.610Z,10.80
2018-11-10T19:10:03.391Z,10.80
2018-11-10T19:12:30.003Z,10.70
2018-11-10T19:14:56.627Z,10.70
2018-11-10T19:17:23.218Z,10.70
2018-11-10T19:19:49.839Z,10.70
2018-11-10T19:22:16.434Z,10.70
2018-11-10T19:24:43.064Z,10.70
2018-11-10T19:27:09.662Z,10.70
2018-11-10T19:29:36.443Z,10.70
2018-11-10T19:32:03.082Z,10.70
2018-11-10T19:34:29.674Z,10.70
2018-11-10T19:36:56.262Z,10.70
2018-11-10T19:39:22.878Z,10.70
2018-11-10T19:41:49.474Z,10.70
2018-11-10T19:44:16.191Z,10.70
2018-11-10T19:46:42.703Z,10.70
2018-11-10T19:49:09.689Z,10.70
2018-11-10T19:51:36.533Z,10.70
2018-11-10T19:54:02.909Z,10.80
2018-11-10T19:56:29.498Z,10.80
2018-11-10T19:58:56.090Z,10.80
2018-11-10T20:01:22.731Z,10.80
2018-11-10T20:03:49.333Z,10.80
2018-11-10T20:06:15.982Z,10.80
2018-11-10T20:08:42.574Z,10.80
2018-11-10T20:11:09.208Z,10.80
2018-11-10T20:13:35.822Z,10.70
2018-11-10T20:16:02.449Z,10.70
2018-11-10T20:18:29.052Z,10.60
2018-11-10T20:20:55.686Z,10.60
2018-11-10T20:23:22.283Z,10.50
2018-11-10T20:25:48.907Z,10.50
2018-11-10T20:28:15.502Z,10.50
2018-11-10T20:30:42.156Z,10.40
2018-11-10T20:33:08.751Z,10.40
2018-11-10T20:35:35.378Z,10.30
2018-11-10T20:38:01.982Z,10.30
2018-11-10T20:40:28.611Z,10.20
2018-11-10T20:42:55.219Z,10.20
2018-11-10T20:45:21.843Z,10.20
2018-11-10T20:47:48.442Z,10.20
2018-11-10T20:50:15.490Z,10.10
2018-11-10T20:52:42.097Z,10.20
2018-11-10T20:55:09.058Z,10.20
2018-11-10T20:57:36.338Z,10.10
2018-11-10T21:00:03.813Z,10.10
2018-11-10T21:02:30.422Z,10.10
2018-11-10T21:04:57.030Z,10.10
2018-11-10T21:07:23.834Z,10.10
2018-11-10T21:09:50.434Z,10.10
2018-11-10T21:12:17.050Z,10.10
2018-11-10T21:14:43.638Z,10.10
2018-11-10T21:17:10.259Z,10.10
2018-11-10T21:19:36.867Z,10.20
2018-11-10T21:22:05.343Z,10.20
2018-11-10T21:24:31.934Z,10.20
2018-11-10T21:26:58.561Z,10.30
2018-11-10T21:29:25.176Z,10.30
2018-11-10T21:31:51.789Z,10.40
2018-11-10T21:34:18.387Z,10.50
2018-11-10T21:36:45.007Z,10.50
2018-11-10T21:39:11.601Z,10.60
2018-11-10T21:41:38.254Z,10.60
2018-11-10T21:44:05.007Z,10.60
2018-11-10T21:46:31.627Z,10.60
2018-11-10T21:48:58.224Z,10.70
2018-11-10T21:51:24.846Z,10.60
2018-11-10T21:53:51.438Z,10.60
2018-11-10T21:56:18.062Z,10.60
2018-11-10T21:58:44.655Z,10.50
2018-11-10T22:01:11.256Z,10.50
2018-11-10T22:03:38.631Z,10.50
2018-11-10T22:06:05.271Z,10.50
2018-11-10T22:08:31.883Z,10.50
2018-11-10T22:10:58.516Z,10.50
2018-11-10T22:13:25.135Z,10.60
2018-11-10T22:15:51.862Z,10.60
2018-11-10T22:18:25.470Z,10.60
2018-11-10T22:20:52.093Z,10.60
2018-11-10T22:23:18.695Z,10.60
2018-11-10T22:25:45.318Z,10.60
2018-11-10T22:28:11.920Z,10.50
2018-11-10T22:30:38.544Z,10.50
2018-11-10T22:33:05.131Z,10.50
2018-11-10T22:35:31.747Z,10.50
2018-11-10T22:37:58.334Z,10.50
2018-11-10T22:40:24.951Z,10.50
2018-11-10T22:42:51.558Z,10.50
2018-11-10T22:45:19.422Z,10.60
2018-11-10T22:47:46.033Z,10.60
2018-11-10T22:50:17.167Z,10.60
2018-11-10T22:52:43.794Z,10.70
2018-11-10T22:55:10.606Z,10.70
2018-11-10T22:57:37.203Z,10.80
2018-11-10T23:00:05.230Z,10.70
2018-11-10T23:02:31.847Z,10.70
2018-11-10T23:04:58.503Z,10.70
2018-11-10T23:07:25.098Z,10.70
2018-11-10T23:09:51.730Z,10.70
2018-11-10T23:12:18.315Z,10.70
2018-11-10T23:14:44.914Z,10.70
2018-11-10T23:17:11.594Z,10.70
2018-11-10T23:19:38.134Z,10.60
2018-11-10T23:22:04.750Z,10.60
2018-11-10T23:24:31.338Z,10.50
2018-11-10T23:26:57.962Z,10.50
2018-11-10T23:29:24.570Z,10.40
2018-11-10T23:31:51.182Z,10.40
2018-11-10T23:34:17.783Z,10.30
2018-11-10T23:36:44.403Z,10.20
2018-11-10T23:39:11.910Z,10.00
2018-11-10T23:41:39.203Z,9.80
2018-11-10T23:44:06.122Z,9.70
2018-11-10T23:46:32.743Z,9.50
2018-11-10T23:48:59.339Z,9.40
2018-11-10T23:51:25.954Z,9.30
2018-11-10T23:53:52.640Z,9.30
2018-11-10T23:56:19.238Z,9.30
2018-11-10T23:58:45.830Z,9.40
